createdAt,value
2018-02-04T00:01:03.692Z,11.27
2018-02-04T00:03:31.139Z,11.73
2018-02-04T00:05:58.595Z,11.93
2018-02-04T00:08:26.050Z,12.90
2018-02-04T00:10:53.580Z,12.55
2018-02-04T00:13:21.029Z,12.80
2018-02-04T00:15:48.469Z,12.45
2018-02-04T00:18:15.926Z,18.40
2018-02-04T00:20:43.405Z,18.08
2018-02-04T00:23:10.880Z,18.12
2018-02-04T00:25:38.327Z,16.60
2018-02-04T00:28:05.752Z,16.83
2018-02-04T00:30:33.212Z,10.85
2018-02-04T00:33:00.647Z,11.25
2018-02-04T00:35:28.104Z,10.77
2018-02-04T00:37:55.729Z,11.52
2018-02-04T00:40:23.168Z,10.40
2018-02-04T00:42:50.619Z,16.67
2018-02-04T00:45:18.054Z,14.50
2018-02-04T00:47:46.283Z,13.88
2018-02-04T00:50:13.936Z,14.48
2018-02-04T00:52:41.363Z,14.50
2018-02-04T00:55:08.903Z,9.60
2018-02-04T00:57:36.591Z,10.00
2018-02-04T01:00:04.060Z,9.27
2018-02-04T01:02:31.509Z,11.10
2018-02-04T01:04:59.018Z,9.23
2018-02-04T01:07:26.433Z,9.75
2018-02-04T01:09:53.918Z,9.77
2018-02-04T01:12:21.380Z,11.07
2018-02-04T01:14:48.830Z,12.80
2018-02-04T01:17:16.335Z,13.32
2018-02-04T01:19:44.557Z,10.05
2018-02-04T01:22:11.991Z,13.48
2018-02-04T01:24:39.445Z,14.27
2018-02-04T01:27:06.927Z,12.20
2018-02-04T01:29:34.347Z,12.52
2018-02-04T01:32:01.836Z,13.50
2018-02-04T01:34:29.271Z,14.20
2018-02-04T01:36:56.755Z,14.82
2018-02-04T01:39:24.375Z,14.65
2018-02-04T01:41:51.835Z,15.03
2018-02-04T01:44:19.278Z,13.70
2018-02-04T01:46:46.759Z,12.88
2018-02-04T01:49:14.189Z,13.75
2018-02-04T01:51:42.383Z,13.10
2018-02-04T01:54:09.831Z,10.30
2018-02-04T01:56:38.047Z,11.20
2018-02-04T01:59:05.483Z,9.55
2018-02-04T02:01:33.032Z,13.98
2018-02-04T02:04:00.486Z,13.85
2018-02-04T02:06:27.977Z,8.18
2018-02-04T02:08:55.402Z,8.70
2018-02-04T02:11:23.615Z,10.38
2018-02-04T02:13:51.061Z,12.40
2018-02-04T02:16:18.496Z,14.40
2018-02-04T02:18:45.939Z,12.68
2018-02-04T02:21:14.151Z,12.77
2018-02-04T02:23:41.667Z,8.88
2018-02-04T02:26:09.135Z,12.88
2018-02-04T02:28:36.600Z,13.50
2018-02-04T02:31:04.045Z,12.48
2018-02-04T02:33:32.239Z,15.18
2018-02-04T02:35:59.682Z,14.15
2018-02-04T02:38:27.127Z,14.48
2018-02-04T02:40:54.580Z,9.07
2018-02-04T02:43:22.035Z,9.73
2018-02-04T02:45:49.479Z,14.57
2018-02-04T02:48:16.925Z,10.27
2018-02-04T02:50:44.363Z,12.98
2018-02-04T02:53:11.811Z,9.07
2018-02-04T02:55:39.254Z,13.05
2018-02-04T02:58:06.711Z,11.35
2018-02-04T03:00:34.134Z,9.20
2018-02-04T03:03:02.355Z,12.48
2018-02-04T03:05:29.797Z,11.85
2018-02-04T03:07:57.437Z,7.43
2018-02-04T03:10:24.867Z,9.07
2018-02-04T03:12:52.311Z,11.63
2018-02-04T03:15:20.196Z,8.75
2018-02-04T03:17:47.627Z,8.45
2018-02-04T03:20:15.074Z,10.65
2018-02-04T03:22:42.506Z,8.90
2018-02-04T03:25:09.966Z,8.63
2018-02-04T03:27:37.415Z,12.70
2018-02-04T03:30:04.877Z,12.82
2018-02-04T03:32:32.320Z,12.63
2018-02-04T03:34:59.771Z,8.73
2018-02-04T03:37:27.231Z,12.48
2018-02-04T03:39:54.666Z,7.50
2018-02-04T03:42:22.120Z,11.30
2018-02-04T03:44:49.555Z,12.55
2018-02-04T03:47:17.011Z,13.02
2018-02-04T03:49:44.457Z,8.63
2018-02-04T03:52:11.965Z,8.35
2018-02-04T03:54:39.415Z,8.20
2018-02-04T03:57:07.614Z,11.85
2018-02-04T03:59:35.066Z,8.88
2018-02-04T04:02:02.507Z,14.80
2018-02-04T04:04:29.964Z,13.15
2018-02-04T04:06:57.413Z,11.55
2018-02-04T04:09:24.849Z,8.60
2018-02-04T04:11:52.291Z,12.02
2018-02-04T04:14:19.720Z,8.18
2018-02-04T04:16:47.187Z,9.32
2018-02-04T04:19:14.618Z,14.10
2018-02-04T04:21:42.083Z,12.25
2018-02-04T04:24:09.527Z,14.02
2018-02-04T04:26:37.767Z,15.23
2018-02-04T04:29:05.200Z,14.43
2018-02-04T04:31:32.659Z,12.23
2018-02-04T04:34:00.098Z,12.15
2018-02-04T04:36:27.527Z,10.73
2018-02-04T04:38:54.984Z,12.05
2018-02-04T04:41:22.411Z,9.00
2018-02-04T04:43:49.867Z,13.73
2018-02-04T04:46:17.313Z,12.70
2018-02-04T04:48:44.763Z,9.48
2018-02-04T04:51:12.215Z,12.57
2018-02-04T04:53:39.671Z,12.85
2018-02-04T04:56:08.729Z,13.82
2018-02-04T04:58:36.179Z,12.93
2018-02-04T05:01:03.603Z,14.55
2018-02-04T05:03:31.082Z,10.35
2018-02-04T05:05:58.502Z,9.45
2018-02-04T05:08:25.954Z,10.10
2018-02-04T05:10:54.182Z,15.15
2018-02-04T05:13:21.606Z,9.50
2018-02-04T05:15:49.063Z,17.05
2018-02-04T05:18:16.671Z,15.82
2018-02-04T05:20:44.109Z,16.15
2018-02-04T05:23:11.571Z,16.17
2018-02-04T05:25:39.795Z,11.27
2018-02-04T05:28:07.247Z,11.95
2018-02-04T05:30:34.703Z,12.43
2018-02-04T05:33:02.157Z,12.68
2018-02-04T05:35:29.606Z,12.02
2018-02-04T05:37:57.036Z,13.85
2018-02-04T05:40:24.496Z,18.77
2018-02-04T05:42:51.942Z,13.52
2018-02-04T05:45:19.403Z,13.57
2018-02-04T05:47:46.831Z,12.40
2018-02-04T05:50:14.285Z,11.00
2018-02-04T05:52:41.731Z,11.88
2018-02-04T05:55:09.174Z,13.73
2018-02-04T05:57:36.630Z,13.85
2018-02-04T06:00:04.088Z,13.85
2018-02-04T06:02:33.035Z,12.82
2018-02-04T06:05:00.488Z,13.75
2018-02-04T06:07:27.937Z,13.55
2018-02-04T06:09:55.386Z,13.30
2018-02-04T06:12:22.838Z,14.05
2018-02-04T06:14:50.291Z,20.88
2018-02-04T06:17:17.731Z,14.52
2018-02-04T06:19:45.163Z,13.93
2018-02-04T06:22:12.598Z,15.90
2018-02-04T06:24:40.160Z,22.55
2018-02-04T06:27:07.614Z,14.50
2018-02-04T06:29:35.086Z,15.07
2018-02-04T06:32:02.511Z,21.50
2018-02-04T06:34:29.960Z,21.60
2018-02-04T06:36:57.398Z,13.40
2018-02-04T06:39:24.854Z,20.65
2018-02-04T06:41:52.292Z,21.02
2018-02-04T06:44:19.757Z,18.90
2018-02-04T06:46:47.296Z,13.68
2018-02-04T06:49:14.727Z,19.85
2018-02-04T06:51:42.167Z,20.33
2018-02-04T06:54:09.616Z,20.85
2018-02-04T06:56:37.074Z,21.08
2018-02-04T06:59:04.519Z,14.75
2018-02-04T07:01:31.962Z,15.30
2018-02-04T07:03:59.428Z,13.75
2018-02-04T07:06:26.879Z,20.50
2018-02-04T07:08:55.922Z,21.07
2018-02-04T07:11:23.358Z,14.38
2018-02-04T07:13:50.809Z,21.00
2018-02-04T07:16:18.264Z,20.37
2018-02-04T07:18:45.719Z,20.88
2018-02-04T07:21:13.181Z,16.55
2018-02-04T07:23:40.606Z,14.48
2018-02-04T07:26:08.063Z,16.87
2018-02-04T07:28:35.495Z,15.35
2018-02-04T07:31:03.052Z,15.30
2018-02-04T07:33:30.482Z,24.58
2018-02-04T07:35:57.934Z,14.63
2018-02-04T07:38:25.378Z,15.77
2018-02-04T07:40:52.836Z,15.75
2018-02-04T07:43:20.292Z,15.77
2018-02-04T07:45:47.751Z,16.75
2018-02-04T07:48:15.191Z,16.00
2018-02-04T07:50:42.651Z,22.62
2018-02-04T07:53:10.149Z,23.12
2018-02-04T07:55:37.610Z,22.80
2018-02-04T07:58:05.063Z,23.12
2018-02-04T08:00:33.288Z,14.52
2018-02-04T08:03:00.740Z,13.70
2018-02-04T08:05:28.199Z,14.10
2018-02-04T08:07:55.655Z,15.25
2018-02-04T08:10:23.090Z,14.27
2018-02-04T08:12:50.531Z,16.60
2018-02-04T08:15:17.968Z,14.13
2018-02-04T08:17:45.423Z,15.60
2018-02-04T08:20:12.863Z,23.17
2018-02-04T08:22:40.306Z,16.37
2018-02-04T08:25:07.758Z,21.80
2018-02-04T08:27:35.215Z,14.60
2018-02-04T08:30:02.664Z,15.77
2018-02-04T08:32:30.105Z,16.63
2018-02-04T08:34:57.555Z,16.73
2018-02-04T08:37:24.998Z,16.40
2018-02-04T08:39:52.449Z,18.10
2018-02-04T08:42:19.881Z,23.73
2018-02-04T08:44:47.329Z,16.30
2018-02-04T08:47:14.786Z,18.00
2018-02-04T08:49:42.227Z,16.43
2018-02-04T08:52:09.658Z,23.27
2018-02-04T08:54:37.100Z,15.93
2018-02-04T08:57:04.555Z,17.00
2018-02-04T08:59:31.990Z,16.13
2018-02-04T09:01:59.423Z,14.30
2018-02-04T09:04:26.870Z,14.67
2018-02-04T09:06:54.321Z,15.10
2018-02-04T09:09:21.759Z,15.50
2018-02-04T09:11:49.207Z,17.90
2018-02-04T09:14:16.678Z,14.47
2018-02-04T09:16:44.140Z,18.97
2018-02-04T09:19:11.783Z,14.13
2018-02-04T09:21:39.211Z,12.73
2018-02-04T09:24:06.663Z,19.50
2018-02-04T09:26:34.101Z,13.83
2018-02-04T09:29:01.568Z,18.57
2018-02-04T09:31:28.999Z,13.67
2018-02-04T09:33:56.463Z,14.30
2018-02-04T09:36:23.910Z,18.43
2018-02-04T09:38:51.331Z,16.80
2018-02-04T09:41:18.871Z,18.57
2018-02-04T09:43:46.324Z,19.90
2018-02-04T09:46:13.767Z,18.97
2018-02-04T09:48:41.215Z,16.17
2018-02-04T09:51:08.712Z,20.43
2018-02-04T09:53:36.096Z,14.73
2018-02-04T09:56:03.565Z,22.10
2018-02-04T09:58:31.017Z,20.23
2018-02-04T10:00:58.467Z,22.00
2018-02-04T10:03:25.998Z,21.90
2018-02-04T10:05:54.216Z,16.67
2018-02-04T10:08:21.663Z,22.90
2018-02-04T10:10:49.092Z,16.37
2018-02-04T10:13:16.523Z,24.70
2018-02-04T10:15:43.959Z,17.10
2018-02-04T10:18:11.408Z,17.30
2018-02-04T10:20:38.859Z,16.70
2018-02-04T10:23:06.303Z,15.10
2018-02-04T10:25:33.730Z,20.60
2018-02-04T10:28:01.172Z,12.90
2018-02-04T10:30:28.616Z,14.30
2018-02-04T10:32:56.063Z,12.90
2018-02-04T10:35:23.495Z,12.57
2018-02-04T10:37:50.954Z,13.17
2018-02-04T10:40:18.413Z,11.20
2018-02-04T10:42:45.870Z,11.00
2018-02-04T10:45:13.316Z,11.57
2018-02-04T10:47:40.760Z,12.63
2018-02-04T10:50:08.203Z,11.37
2018-02-04T10:52:35.665Z,11.40
2018-02-04T10:55:03.115Z,12.30
2018-02-04T10:57:30.553Z,12.90
2018-02-04T10:59:58.776Z,12.30
2018-02-04T11:02:26.231Z,12.93
2018-02-04T11:04:53.662Z,12.37
2018-02-04T11:07:21.100Z,10.30
2018-02-04T11:09:48.583Z,9.43
2018-02-04T11:12:16.016Z,9.90
2018-02-04T11:14:43.500Z,11.87
2018-02-04T11:17:11.713Z,10.50
2018-02-04T11:19:39.252Z,10.10
2018-02-04T11:22:06.685Z,9.83
2018-02-04T11:24:34.117Z,11.37
2018-02-04T11:27:01.568Z,12.13
2018-02-04T11:29:29.003Z,11.27
2018-02-04T11:31:56.610Z,11.70
2018-02-04T11:34:24.054Z,10.30
2018-02-04T11:36:51.492Z,9.80
2018-02-04T11:39:18.955Z,10.43
2018-02-04T11:41:46.397Z,9.47
2018-02-04T11:44:13.855Z,9.20
2018-02-04T11:46:41.335Z,8.13
2018-02-04T11:49:08.723Z,9.90
2018-02-04T11:51:36.165Z,7.40
2018-02-04T11:54:04.411Z,8.87
2018-02-04T11:56:31.851Z,8.30
2018-02-04T11:58:59.482Z,8.57
2018-02-04T12:01:26.903Z,8.77
2018-02-04T12:03:55.094Z,9.33
2018-02-04T12:06:22.515Z,8.70
2018-02-04T12:08:49.955Z,8.83
2018-02-04T12:11:17.411Z,7.03
2018-02-04T12:13:44.855Z,5.40
2018-02-04T12:16:12.351Z,5.70
2018-02-04T12:18:39.810Z,6.87
2018-02-04T12:21:07.240Z,7.50
2018-02-04T12:23:34.697Z,19.63
2018-02-04T12:26:02.135Z,12.47
2018-02-04T12:28:30.434Z,15.00
2018-02-04T12:30:57.902Z,11.70
2018-02-04T12:33:25.343Z,9.63
2018-02-04T12:35:52.792Z,9.10
2018-02-04T12:38:20.243Z,11.50
2018-02-04T12:40:47.672Z,5.47
2018-02-04T12:43:15.103Z,3.93
2018-02-04T12:45:42.551Z,9.40
2018-02-04T12:48:09.983Z,7.30
2018-02-04T12:50:37.421Z,9.07
2018-02-04T12:53:04.855Z,9.53
2018-02-04T12:55:32.288Z,11.67
2018-02-04T12:57:59.758Z,10.40
2018-02-04T13:00:27.197Z,9.90
2018-02-04T13:02:54.617Z,7.00
2018-02-04T13:05:22.043Z,9.40
2018-02-04T13:07:49.495Z,7.10
2018-02-04T13:10:16.927Z,5.07
2018-02-04T13:12:45.128Z,8.47
2018-02-04T13:15:12.568Z,5.60
2018-02-04T13:17:40.801Z,6.50
2018-02-04T13:20:08.208Z,3.70
2018-02-04T13:22:35.632Z,4.00
2018-02-04T13:25:03.254Z,4.50
2018-02-04T13:27:30.668Z,4.47
2018-02-04T13:29:59.087Z,5.23
2018-02-04T13:32:26.513Z,4.83
2018-02-04T13:34:54.740Z,5.20
2018-02-04T13:37:22.160Z,4.40
2018-02-04T13:39:49.633Z,4.70
2018-02-04T13:42:17.052Z,4.97
2018-02-04T13:44:44.467Z,5.97
2018-02-04T13:47:11.915Z,5.40
2018-02-04T13:49:39.359Z,4.90
2018-02-04T13:52:06.788Z,6.63
2018-02-04T13:54:34.235Z,6.03
2018-02-04T13:57:02.446Z,5.80
2018-02-04T13:59:29.883Z,5.80
2018-02-04T14:01:57.350Z,7.00
2018-02-04T14:04:24.827Z,6.90
2018-02-04T14:06:52.285Z,7.20
2018-02-04T14:09:19.735Z,6.73
2018-02-04T14:11:47.156Z,6.77
2018-02-04T14:14:14.577Z,7.07
2018-02-04T14:16:42.020Z,7.80
2018-02-04T14:19:09.459Z,8.50
2018-02-04T14:21:36.887Z,7.43
2018-02-04T14:24:04.343Z,10.80
2018-02-04T14:26:31.911Z,9.13
2018-02-04T14:28:59.335Z,8.50
2018-02-04T14:31:26.786Z,8.53
2018-02-04T14:33:54.239Z,8.67
2018-02-04T14:36:21.678Z,9.47
2018-02-04T14:38:49.119Z,9.37
2018-02-04T14:41:16.574Z,9.70
2018-02-04T14:43:44.010Z,9.30
2018-02-04T14:46:11.444Z,10.20
2018-02-04T14:48:39.013Z,9.00
2018-02-04T14:51:07.219Z,8.00
2018-02-04T14:53:34.647Z,7.50
2018-02-04T14:56:02.079Z,9.00
2018-02-04T14:58:29.518Z,8.40
2018-02-04T15:00:56.954Z,9.07
2018-02-04T15:10:08.019Z,7.33
2018-02-04T15:12:35.456Z,7.50
2018-02-04T15:15:02.912Z,9.70
2018-02-04T15:17:30.340Z,7.97
2018-02-04T15:19:57.791Z,10.87
2018-02-04T15:22:25.219Z,7.13
2018-02-04T15:24:52.659Z,10.20
2018-02-04T15:27:20.851Z,7.87
2018-02-04T15:29:48.296Z,9.20
2018-02-04T15:32:15.743Z,9.70
2018-02-04T15:34:43.180Z,9.97
2018-02-04T15:37:10.611Z,9.80
2018-02-04T15:39:38.051Z,6.90
2018-02-04T15:42:05.494Z,9.27
2018-02-04T15:44:32.923Z,9.03
2018-02-04T15:47:00.383Z,8.40
2018-02-04T15:49:28.570Z,8.07
2018-02-04T15:51:56.012Z,8.57
2018-02-04T15:54:23.466Z,9.40
2018-02-04T15:56:50.907Z,11.00
2018-02-04T15:59:18.335Z,10.30
2018-02-04T16:01:45.775Z,13.80
2018-02-04T16:04:13.210Z,10.03
2018-02-04T16:06:41.423Z,14.20
2018-02-04T16:09:08.860Z,9.50
2018-02-04T16:11:36.311Z,12.57
2018-02-04T16:14:03.749Z,9.43
2018-02-04T16:16:31.235Z,15.67
2018-02-04T16:18:58.658Z,13.90
2018-02-04T16:21:26.104Z,15.47
2018-02-04T16:23:53.541Z,12.53
2018-02-04T16:26:20.986Z,16.37
2018-02-04T16:28:48.446Z,14.50
2018-02-04T16:31:15.897Z,14.80
2018-02-04T16:33:43.351Z,11.40
2018-02-04T16:36:10.783Z,15.45
2018-02-04T16:38:38.236Z,10.27
2018-02-04T16:41:05.667Z,12.35
2018-02-04T16:43:33.895Z,9.57
2018-02-04T16:46:01.331Z,10.67
2018-02-04T16:48:28.795Z,13.80
2018-02-04T16:50:56.247Z,11.63
2018-02-04T16:53:23.670Z,10.38
2018-02-04T16:55:51.116Z,10.32
2018-02-04T16:58:18.559Z,9.82
2018-02-04T17:00:46.040Z,10.55
2018-02-04T17:03:14.263Z,11.83
2018-02-04T17:05:41.702Z,11.27
2018-02-04T17:08:09.159Z,11.25
2018-02-04T17:10:36.603Z,10.50
2018-02-04T17:13:04.035Z,10.25
2018-02-04T17:15:32.393Z,14.93
2018-02-04T17:17:59.831Z,14.52
2018-02-04T17:20:27.283Z,11.15
2018-02-04T17:22:54.711Z,9.95
2018-02-04T17:25:22.164Z,9.73
2018-02-04T17:27:49.595Z,13.80
2018-02-04T17:30:17.061Z,10.00
2018-02-04T17:32:44.505Z,14.50
2018-02-04T17:35:11.961Z,17.23
2018-02-04T17:37:39.434Z,18.10
2018-02-04T17:40:06.876Z,18.67
2018-02-04T17:42:34.333Z,12.85
2018-02-04T17:45:01.810Z,14.20
2018-02-04T17:47:29.259Z,13.15
2018-02-04T17:49:57.479Z,19.55
2018-02-04T17:52:25.136Z,12.20
2018-02-04T17:54:52.559Z,21.02
2018-02-04T17:57:20.011Z,15.70
2018-02-04T17:59:47.456Z,12.30
2018-02-04T18:02:14.899Z,13.88
2018-02-04T18:04:42.372Z,20.25
2018-02-04T18:07:09.804Z,14.95
2018-02-04T18:09:37.268Z,14.10
2018-02-04T18:12:04.726Z,17.05
2018-02-04T18:14:32.163Z,21.20
2018-02-04T18:16:59.607Z,13.18
2018-02-04T18:19:27.059Z,13.18
2018-02-04T18:21:54.515Z,19.23
2018-02-04T18:24:21.941Z,21.85
2018-02-04T18:26:50.155Z,15.43
2018-02-04T18:29:17.591Z,13.25
2018-02-04T18:31:45.039Z,14.27
2018-02-04T18:34:12.485Z,19.95
2018-02-04T18:36:39.926Z,13.73
2018-02-04T18:39:07.375Z,14.57
2018-02-04T18:41:34.830Z,14.25
2018-02-04T18:44:02.358Z,14.82
2018-02-04T18:46:29.757Z,14.50
2018-02-04T18:48:57.213Z,13.70
2018-02-04T18:51:24.698Z,21.42
2018-02-04T18:53:52.974Z,21.90
2018-02-04T18:56:21.171Z,15.20
2018-02-04T18:58:48.627Z,13.38
2018-02-04T19:01:16.075Z,21.33
2018-02-04T19:03:43.511Z,20.15
2018-02-04T19:06:10.992Z,22.80
2018-02-04T19:08:38.428Z,23.48
2018-02-04T19:11:05.868Z,23.77
2018-02-04T19:13:33.360Z,21.60
2018-02-04T19:16:00.800Z,21.40
2018-02-04T19:18:29.026Z,15.90
2018-02-04T19:20:56.456Z,22.20
2018-02-04T19:23:23.895Z,24.58
2018-02-04T19:25:52.120Z,22.98
2018-02-04T19:28:19.553Z,17.37
2018-02-04T19:30:46.983Z,23.52
2018-02-04T19:33:15.203Z,17.15
2018-02-04T19:35:42.634Z,25.40
2018-02-04T19:38:10.110Z,22.85
2018-02-04T19:40:37.572Z,23.73
2018-02-04T19:43:05.028Z,24.20
2018-02-04T19:45:32.484Z,14.90
2018-02-04T19:47:59.941Z,17.02
2018-02-04T19:50:27.397Z,17.30
2018-02-04T19:52:54.891Z,16.90
2018-02-04T19:55:22.331Z,26.00
2018-02-04T19:57:49.777Z,16.60
2018-02-04T20:00:17.222Z,17.08
2018-02-04T20:02:44.685Z,18.20
2018-02-04T20:05:12.142Z,17.42
2018-02-04T20:07:39.580Z,24.27
2018-02-04T20:10:07.030Z,17.77
2018-02-04T20:12:34.467Z,15.75
2018-02-04T20:15:01.912Z,15.13
2018-02-04T20:17:29.357Z,18.45
2018-02-04T20:19:56.867Z,16.67
2018-02-04T20:22:24.319Z,16.75
2018-02-04T20:24:51.778Z,16.50
2018-02-04T20:27:19.207Z,18.40
2018-02-04T20:29:47.434Z,17.45
2018-02-04T20:32:26.769Z,16.73
2018-02-04T20:34:54.273Z,18.55
2018-02-04T20:37:21.721Z,18.50
2018-02-04T20:39:49.165Z,17.83
2018-02-04T20:42:16.619Z,19.08
2018-02-04T20:44:44.100Z,18.40
2018-02-04T20:47:11.552Z,26.42
2018-02-04T20:49:38.983Z,18.80
2018-02-04T20:52:06.442Z,19.80
2018-02-04T20:54:33.890Z,28.60
2018-02-04T20:57:01.339Z,27.10
2018-02-04T20:59:28.800Z,17.45
2018-02-04T21:01:56.262Z,18.83
2018-02-04T21:04:23.710Z,19.27
2018-02-04T21:06:51.168Z,18.12
2018-02-04T21:09:18.628Z,19.92
2018-02-04T21:11:46.079Z,19.58
2018-02-04T21:14:13.548Z,29.35
2018-02-04T21:16:41.755Z,18.87
2018-02-04T21:19:09.215Z,28.62
2018-02-04T21:21:36.667Z,20.90
2018-02-04T21:24:04.241Z,19.37
2018-02-04T21:26:32.459Z,28.58
2018-02-04T21:28:59.906Z,18.85
2018-02-04T21:31:27.347Z,27.85
2018-02-04T21:33:54.787Z,30.60
2018-02-04T21:36:22.245Z,29.70
2018-02-04T21:38:49.686Z,21.05
2018-02-04T21:41:17.144Z,18.95
2018-02-04T21:43:44.598Z,19.87
2018-02-04T21:46:12.043Z,16.80
2018-02-04T21:48:39.476Z,19.65
2018-02-04T21:51:06.937Z,19.40
2018-02-04T21:53:35.151Z,28.15
2018-02-04T21:56:03.397Z,28.50
2018-02-04T21:58:30.848Z,26.55
2018-02-04T22:00:58.297Z,26.87
2018-02-04T22:03:25.753Z,18.00
2018-02-04T22:05:53.207Z,17.92
2018-02-04T22:08:20.639Z,19.00
2018-02-04T22:10:48.122Z,19.42
2018-02-04T22:13:15.551Z,16.42
2018-02-04T22:15:42.995Z,17.83
2018-02-04T22:18:10.440Z,19.80
2018-02-04T22:20:37.905Z,19.42
2018-02-04T22:23:05.339Z,19.45
2018-02-04T22:25:32.779Z,16.87
2018-02-04T22:28:00.231Z,16.92
2018-02-04T22:30:29.279Z,20.80
2018-02-04T22:32:56.744Z,20.48
2018-02-04T22:35:24.184Z,20.60
2018-02-04T22:37:51.639Z,19.40
2018-02-04T22:40:19.087Z,18.87
2018-02-04T22:42:46.536Z,20.12
2018-02-04T22:45:14.004Z,20.08
2018-02-04T22:47:41.460Z,20.00
2018-02-04T22:50:08.931Z,18.70
2018-02-04T22:52:37.317Z,20.05
2018-02-04T22:55:04.756Z,19.12
2018-02-04T22:57:32.210Z,19.95
2018-02-04T22:59:59.650Z,21.35
2018-02-04T23:02:27.108Z,21.17
2018-02-04T23:04:54.571Z,30.73
2018-02-04T23:07:22.002Z,20.58
2018-02-04T23:09:49.451Z,32.25
2018-02-04T23:12:16.887Z,32.55
2018-02-04T23:14:44.431Z,21.05
2018-02-04T23:17:11.898Z,21.73
2018-02-04T23:19:39.345Z,18.45
2018-02-04T23:22:06.785Z,21.87
2018-02-04T23:24:34.239Z,21.60
2018-02-04T23:27:01.697Z,21.58
2018-02-04T23:29:29.154Z,20.90
2018-02-04T23:31:56.609Z,22.27
2018-02-04T23:34:24.039Z,22.55
2018-02-04T23:36:52.487Z,20.70
2018-02-04T23:39:19.947Z,32.97
2018-02-04T23:41:47.412Z,19.35
2018-02-04T23:44:14.839Z,21.90
2018-02-04T23:46:42.292Z,19.25
2018-02-04T23:49:09.737Z,21.15
2018-02-04T23:51:37.195Z,22.50
2018-02-04T23:54:04.637Z,22.33
2018-02-04T23:56:32.069Z,22.17
2018-02-04T23:58:59.503Z,22.45
